KDNS/DNS METAR and TAF weather

Enter ICAO airport designator
Station Type Date Time Source
KDNS METAR 2018/07/20 14:35 UTC NOAA

KDNS 201435Z AUTO 34012G17KT 10SM SCT016 21/18 A2993 RMK AO2


Station Type Date Time Source
KDNS Decoded METAR 2018/07/20 14:35 UTC NOAA

Denison, IA, United States (KDNS) 41-59N 095-23W
Jul 20, 2018 - 10:35 AM EDT / 2018.07.20 1435 UTC
Wind: from the NNW (340 degrees) at 14 MPH (12 KT) gusting to 20 MPH (17 KT):0
Visibility: 10 mile(s):0
Sky conditions: partly cloudy
Temperature: 69 F (21 C)
Dew Point: 64 F (18 C)
Relative Humidity: 82%
Pressure (altimeter): 29.93 in. Hg (1013 hPa)
ob: KDNS 201435Z AUTO 34012G17KT 10SM SCT016 21/18 A2993 RMK AO2
cycle: 14

Station Type Date Time Source
KDNS TAF UTC NOAA

Error!


Example: see airport list